Time;durP1;ratioP1;P1;durP2;ratioP2;P2;SDS_P1;SDS_P2;PMS_P1;PMS_P2;Temp;Humidity;BMP_temperature;BMP_pressure;BME280_temperature;BME280_humidity;BME280_pressure;Samples;Min_cycle;Max_cycle;Signal;HPM_P1;HPM_P2
2023/09/03 00:00:54;;;;;;;3.72;2.10;;;15.70;99.90;;;;;;5001768;28;20033;-36
2023/09/03 00:03:20;;;;;;;3.00;1.80;;;15.70;99.90;;;;;;5004859;28;20084;-37
2023/09/03 00:05:49;;;;;;;1.77;1.67;;;15.70;99.90;;;;;;5004399;28;20042;-39
2023/09/03 00:08:15;;;;;;;1.60;1.50;;;15.70;99.90;;;;;;5003322;28;20036;-38
2023/09/03 00:10:41;;;;;;;1.98;1.77;;;15.60;99.90;;;;;;5004897;28;20022;-37
2023/09/03 00:13:07;;;;;;;3.25;1.80;;;15.60;99.90;;;;;;5003390;28;20025;-36
2023/09/03 00:15:32;;;;;;;2.78;2.20;;;15.60;99.90;;;;;;5003506;28;20040;-39
2023/09/03 00:17:58;;;;;;;2.67;1.90;;;15.50;99.90;;;;;;5002549;28;20022;-38
2023/09/03 00:20:24;;;;;;;2.67;2.22;;;15.50;99.90;;;;;;5005997;28;20144;-36
2023/09/03 00:22:50;;;;;;;2.90;1.90;;;15.50;99.90;;;;;;5005380;28;20061;-36
2023/09/03 00:25:15;;;;;;;2.10;1.80;;;15.50;99.90;;;;;;5003986;28;20026;-39
2023/09/03 00:27:41;;;;;;;3.10;1.92;;;15.50;99.90;;;;;;5004178;28;20030;-40
2023/09/03 00:30:07;;;;;;;2.28;1.60;;;15.50;99.90;;;;;;5006034;28;20049;-38
2023/09/03 00:32:33;;;;;;;1.80;1.70;;;15.30;99.90;;;;;;5000435;28;20037;-40
2023/09/03 00:34:58;;;;;;;4.03;2.10;;;15.30;99.90;;;;;;5009758;28;20049;-36
2023/09/03 00:37:24;;;;;;;3.10;1.75;;;15.30;99.90;;;;;;5003253;28;20487;-38
2023/09/03 00:39:50;;;;;;;1.98;1.55;;;15.20;99.90;;;;;;4999808;28;20026;-34
2023/09/03 00:42:15;;;;;;;4.15;1.70;;;15.20;99.90;;;;;;5003068;28;20034;-38
2023/09/03 00:44:41;;;;;;;1.50;1.40;;;15.20;99.90;;;;;;5003229;28;20054;-37
2023/09/03 00:47:07;;;;;;;3.70;1.50;;;15.20;99.90;;;;;;5002613;28;20087;-38
2023/09/03 00:49:32;;;;;;;3.08;1.95;;;15.20;99.90;;;;;;5002501;28;20026;-37
2023/09/03 00:51:58;;;;;;;2.60;1.83;;;15.20;99.90;;;;;;5000624;28;20488;-38
2023/09/03 00:54:24;;;;;;;2.00;1.48;;;15.20;99.90;;;;;;5002813;28;20061;-36
2023/09/03 00:56:52;;;;;;;2.42;1.60;;;15.10;99.90;;;;;;5003394;28;20495;-38
2023/09/03 00:59:19;;;;;;;2.37;1.80;;;15.10;99.90;;;;;;5002641;28;20542;-38
2023/09/03 01:01:48;;;;;;;3.33;2.00;;;15.10;99.90;;;;;;5003316;28;20892;-30
2023/09/03 01:04:14;;;;;;;1.92;1.63;;;15.10;99.90;;;;;;5002046;28;20037;-34
2023/09/03 01:06:41;;;;;;;3.90;1.52;;;15.10;99.90;;;;;;5002083;28;20068;-32
2023/09/03 01:09:07;;;;;;;2.22;1.90;;;15.10;99.90;;;;;;5004015;28;20604;-31
2023/09/03 01:12:26;;;;;;;2.80;2.00;;;15.10;99.90;;;;;;5003644;28;20026;-33
2023/09/03 01:15:03;;;;;;;2.58;1.77;;;15.00;99.90;;;;;;4980308;28;20033;-33
2023/09/03 01:17:46;;;;;;;3.00;1.80;;;15.00;99.90;;;;;;5014588;28;20037;-34
2023/09/03 01:20:21;;;;;;;2.55;1.80;;;15.00;99.90;;;;;;5001767;28;20041;-30
2023/09/03 01:22:54;;;;;;;2.13;1.52;;;15.00;99.90;;;;;;5002875;28;20507;-31
2023/09/03 01:25:49;;;;;;;1.70;1.60;;;14.90;99.90;;;;;;5002719;28;20030;-33
2023/09/03 01:28:23;;;;;;;1.70;1.40;;;14.80;99.90;;;;;;4990263;28;20053;-34
2023/09/03 01:30:54;;;;;;;1.40;1.30;;;14.80;99.90;;;;;;5000564;28;20042;-34
2023/09/03 01:33:20;;;;;;;1.73;1.45;;;14.80;99.90;;;;;;5004123;28;20026;-31
2023/09/03 01:35:48;;;;;;;2.33;1.77;;;14.80;99.90;;;;;;5003351;28;20054;-32
2023/09/03 01:38:14;;;;;;;2.70;1.80;;;14.70;99.90;;;;;;5004448;28;20033;-35
2023/09/03 01:40:40;;;;;;;3.15;1.70;;;14.70;99.90;;;;;;5004289;28;20475;-32
2023/09/03 01:43:06;;;;;;;2.67;1.70;;;14.80;99.90;;;;;;5006767;28;20529;-31
2023/09/03 01:45:43;;;;;;;2.45;1.60;;;14.80;99.90;;;;;;5000460;28;20041;-32
2023/09/03 01:48:21;;;;;;;1.83;1.73;;;14.80;99.90;;;;;;5008081;28;20449;-33
2023/09/03 01:51:06;;;;;;;4.47;2.00;;;14.80;99.90;;;;;;5002719;28;20041;-37
2023/09/03 01:54:05;;;;;;;4.63;1.70;;;14.80;99.90;;;;;;5014375;28;20507;-39
2023/09/03 01:56:39;;;;;;;2.72;1.80;;;14.70;99.90;;;;;;5000714;28;20022;-39
2023/09/03 01:59:14;;;;;;;2.78;1.90;;;14.70;99.90;;;;;;5000848;28;20034;-39
2023/09/03 02:01:40;;;;;;;2.10;1.75;;;14.70;99.90;;;;;;5000998;28;20038;-38
2023/09/03 02:04:06;;;;;;;2.45;1.80;;;14.50;99.90;;;;;;5002392;28;20029;-39
2023/09/03 02:06:31;;;;;;;2.72;2.15;;;14.50;99.90;;;;;;5001108;28;20041;-36
2023/09/03 02:08:57;;;;;;;3.40;1.92;;;14.60;99.90;;;;;;5002454;28;20026;-38
2023/09/03 02:11:23;;;;;;;3.08;2.03;;;14.50;99.90;;;;;;5002537;28;20088;-38
2023/09/03 02:13:49;;;;;;;4.55;1.63;;;14.60;99.90;;;;;;5002577;28;20017;-38
2023/09/03 02:16:14;;;;;;;1.40;1.30;;;14.50;99.90;;;;;;5002317;28;20047;-38
2023/09/03 02:18:40;;;;;;;1.98;1.50;;;14.50;99.90;;;;;;5002094;28;20728;-39
2023/09/03 02:21:05;;;;;;;2.35;1.20;;;14.50;99.90;;;;;;5004313;28;20030;-40
2023/09/03 02:23:31;;;;;;;2.47;1.80;;;14.50;99.90;;;;;;5006098;28;20034;-35
2023/09/03 02:26:01;;;;;;;1.88;1.77;;;14.50;99.90;;;;;;5001510;28;20030;-40
2023/09/03 02:28:27;;;;;;;2.78;1.90;;;14.60;99.90;;;;;;5006086;28;20018;-37
2023/09/03 02:30:53;;;;;;;1.98;1.60;;;14.60;99.90;;;;;;5016866;28;20411;-38
2023/09/03 02:33:19;;;;;;;2.03;1.70;;;14.50;99.90;;;;;;5003587;28;20035;-37
2023/09/03 02:35:44;;;;;;;3.10;1.77;;;14.50;99.90;;;;;;5003796;28;20033;-39
2023/09/03 02:38:10;;;;;;;2.78;1.85;;;14.50;99.90;;;;;;5001344;28;20033;-38
2023/09/03 02:40:37;;;;;;;1.77;1.67;;;14.60;99.90;;;;;;5000686;28;20033;-38
2023/09/03 02:43:04;;;;;;;2.03;1.60;;;14.60;99.90;;;;;;4998274;28;20536;-38
2023/09/03 02:45:30;;;;;;;1.60;1.50;;;14.50;99.90;;;;;;5003099;28;20026;-38
2023/09/03 02:47:55;;;;;;;2.00;1.60;;;14.50;99.90;;;;;;5001101;28;20030;-38
2023/09/03 02:50:21;;;;;;;4.85;1.70;;;14.40;99.90;;;;;;5000264;28;20038;-39
2023/09/03 02:52:46;;;;;;;2.05;1.88;;;14.40;99.90;;;;;;5000200;28;20033;-40
2023/09/03 02:55:13;;;;;;;4.25;2.00;;;14.40;99.90;;;;;;5001398;28;20064;-39
2023/09/03 02:57:39;;;;;;;2.60;1.80;;;14.30;99.90;;;;;;5000988;28;20121;-40
2023/09/03 03:00:05;;;;;;;2.95;1.80;;;14.40;99.90;;;;;;5004597;28;20112;-38
2023/09/03 03:02:31;;;;;;;2.80;1.90;;;14.40;99.90;;;;;;5003813;28;20124;-38
2023/09/03 03:04:57;;;;;;;2.95;1.83;;;14.40;99.90;;;;;;5003206;28;20525;-39
2023/09/03 03:07:23;;;;;;;3.67;1.88;;;14.40;99.90;;;;;;5004535;28;20030;-39
2023/09/03 03:09:49;;;;;;;3.05;1.85;;;14.40;99.90;;;;;;5006020;28;20033;-38
2023/09/03 03:12:15;;;;;;;2.25;2.05;;;14.40;99.90;;;;;;5010190;28;20044;-38
2023/09/03 03:14:40;;;;;;;5.05;1.83;;;14.30;99.90;;;;;;5002360;28;20443;-36
2023/09/03 03:17:06;;;;;;;3.15;1.90;;;14.30;99.90;;;;;;5004662;28;20037;-35
2023/09/03 03:19:32;;;;;;;3.47;2.10;;;14.40;99.90;;;;;;5007724;28;20125;-34
2023/09/03 03:21:58;;;;;;;3.17;2.13;;;14.30;99.90;;;;;;5003242;28;20053;-37
2023/09/03 03:24:23;;;;;;;2.78;2.30;;;14.30;99.90;;;;;;5004049;28;20052;-37
2023/09/03 03:26:49;;;;;;;3.33;1.90;;;14.20;99.90;;;;;;5002436;28;20037;-38
2023/09/03 03:29:14;;;;;;;1.92;1.80;;;14.20;99.90;;;;;;5005095;28;20116;-38
2023/09/03 03:31:42;;;;;;;2.50;1.80;;;14.20;99.90;;;;;;5004246;28;20034;-40
2023/09/03 03:34:08;;;;;;;2.70;2.00;;;14.10;99.90;;;;;;5004552;28;20786;-38
2023/09/03 03:36:33;;;;;;;2.72;2.00;;;14.10;99.90;;;;;;5002115;28;20042;-37
2023/09/03 03:38:59;;;;;;;2.10;1.88;;;14.00;99.90;;;;;;5006729;28;20030;-37
2023/09/03 03:41:25;;;;;;;3.63;2.08;;;14.00;99.90;;;;;;5003747;28;20099;-38
2023/09/03 03:43:51;;;;;;;2.33;2.05;;;14.00;99.90;;;;;;5006683;28;20030;-40
2023/09/03 03:46:19;;;;;;;3.38;2.08;;;14.10;99.90;;;;;;5004511;28;20462;-39
2023/09/03 03:48:46;;;;;;;3.03;2.03;;;14.10;99.90;;;;;;5003587;28;20029;-40
2023/09/03 03:51:12;;;;;;;5.45;2.38;;;14.20;99.90;;;;;;5001804;28;20030;-38
2023/09/03 03:53:38;;;;;;;3.83;2.15;;;14.20;99.90;;;;;;5003768;28;20429;-38
2023/09/03 03:56:05;;;;;;;2.88;2.08;;;14.20;99.90;;;;;;5002316;28;20057;-37
2023/09/03 03:58:34;;;;;;;4.63;2.33;;;14.00;99.90;;;;;;5002196;28;20799;-38
2023/09/03 04:01:00;;;;;;;3.38;2.40;;;13.90;99.90;;;;;;5003352;28;20281;-39
2023/09/03 04:03:28;;;;;;;2.40;2.13;;;13.90;99.90;;;;;;5003208;28;20089;-40
2023/09/03 04:06:02;;;;;;;2.75;1.90;;;13.90;99.90;;;;;;5002643;28;20036;-38
2023/09/03 04:08:30;;;;;;;3.55;2.05;;;13.90;99.90;;;;;;5000496;28;20026;-37
2023/09/03 04:10:59;;;;;;;2.10;1.90;;;13.90;99.90;;;;;;5001938;28;20508;-37
2023/09/03 04:13:26;;;;;;;2.05;1.83;;;13.90;99.90;;;;;;5005148;28;20104;-39
2023/09/03 04:15:53;;;;;;;1.85;1.67;;;13.90;99.90;;;;;;5001015;28;20041;-37
2023/09/03 04:18:18;;;;;;;2.60;2.00;;;13.90;99.90;;;;;;5003608;28;20030;-39
2023/09/03 04:20:44;;;;;;;2.45;2.10;;;13.90;99.90;;;;;;5001766;28;20044;-38
2023/09/03 04:23:09;;;;;;;2.55;2.10;;;13.90;99.90;;;;;;5005376;28;20049;-37
2023/09/03 04:25:35;;;;;;;3.08;2.17;;;13.90;99.90;;;;;;5003160;28;20025;-38
2023/09/03 04:28:01;;;;;;;2.42;2.10;;;13.90;99.90;;;;;;5006290;28;20121;-38
2023/09/03 04:30:26;;;;;;;2.30;2.00;;;13.90;99.90;;;;;;5001910;28;22308;-37
2023/09/03 04:32:52;;;;;;;2.45;1.83;;;13.80;99.90;;;;;;5002214;28;20062;-40
2023/09/03 04:35:17;;;;;;;2.65;2.17;;;13.80;99.90;;;;;;5005606;28;20040;-40
2023/09/03 04:37:43;;;;;;;2.42;2.22;;;13.80;99.90;;;;;;5002694;28;20044;-38
2023/09/03 04:40:09;;;;;;;4.93;2.42;;;13.80;99.90;;;;;;5001627;28;20025;-38
2023/09/03 04:42:35;;;;;;;2.92;2.25;;;13.70;99.90;;;;;;5002310;28;20087;-37
2023/09/03 04:45:00;;;;;;;3.38;2.22;;;13.70;99.90;;;;;;5002807;28;20033;-40
2023/09/03 04:47:26;;;;;;;3.85;2.33;;;13.80;99.90;;;;;;5004514;28;20076;-39
2023/09/03 04:49:52;;;;;;;3.63;2.40;;;13.80;99.90;;;;;;5003990;28;20017;-40
2023/09/03 04:52:17;;;;;;;4.70;2.92;;;13.80;99.90;;;;;;5001761;28;20026;-39
2023/09/03 04:54:43;;;;;;;3.05;2.42;;;13.80;99.90;;;;;;5002182;28;20582;-38
2023/09/03 04:57:09;;;;;;;2.58;2.20;;;13.80;99.90;;;;;;5002316;28;20596;-38
2023/09/03 04:59:35;;;;;;;3.42;2.20;;;13.80;99.90;;;;;;5004846;28;20034;-38
2023/09/03 05:02:01;;;;;;;3.55;2.00;;;13.80;99.90;;;;;;4999363;28;20061;-37
2023/09/03 05:04:27;;;;;;;4.97;2.40;;;13.60;99.90;;;;;;5004365;28;20479;-38
2023/09/03 05:06:52;;;;;;;2.25;2.05;;;13.60;99.90;;;;;;5002221;28;20084;-36
2023/09/03 05:09:18;;;;;;;2.20;2.00;;;13.60;99.90;;;;;;5002677;28;20058;-38
2023/09/03 05:11:43;;;;;;;3.15;2.20;;;13.70;99.90;;;;;;5002660;28;20132;-38
2023/09/03 05:14:09;;;;;;;3.08;2.45;;;13.70;99.90;;;;;;5001727;28;20044;-38
2023/09/03 05:16:35;;;;;;;3.45;2.38;;;13.70;99.90;;;;;;5005788;28;20033;-37
2023/09/03 05:19:04;;;;;;;2.78;2.33;;;13.70;99.90;;;;;;5002103;28;20030;-37
2023/09/03 05:21:31;;;;;;;3.08;2.40;;;13.70;99.90;;;;;;5001857;28;20124;-32
2023/09/03 05:23:57;;;;;;;2.88;2.65;;;13.80;99.90;;;;;;5001519;28;20033;-35
2023/09/03 05:26:23;;;;;;;2.78;2.30;;;13.80;99.90;;;;;;5001758;28;20033;-34
2023/09/03 05:28:49;;;;;;;3.17;2.20;;;13.80;99.90;;;;;;5004807;28;20045;-33
2023/09/03 05:31:15;;;;;;;2.83;2.55;;;13.80;99.90;;;;;;5000249;28;20065;-32
2023/09/03 05:33:41;;;;;;;3.13;2.60;;;13.80;99.90;;;;;;5000737;28;20066;-33
2023/09/03 05:36:07;;;;;;;2.95;2.65;;;13.90;99.90;;;;;;5000159;28;20053;-32
2023/09/03 05:38:32;;;;;;;2.63;2.42;;;13.90;99.90;;;;;;5003980;28;20052;-31
2023/09/03 05:40:59;;;;;;;4.15;2.78;;;14.00;99.90;;;;;;5001943;28;20476;-31
2023/09/03 05:43:26;;;;;;;2.97;2.33;;;14.00;99.90;;;;;;5003011;28;20265;-32
2023/09/03 05:45:52;;;;;;;3.92;2.20;;;14.10;99.90;;;;;;5003555;28;20049;-32
2023/09/03 05:48:17;;;;;;;2.90;2.60;;;14.10;99.90;;;;;;5002178;28;20068;-31
2023/09/03 05:50:43;;;;;;;2.72;2.50;;;14.20;99.90;;;;;;5003747;28;20026;-32
2023/09/03 05:53:09;;;;;;;2.95;2.10;;;14.30;99.90;;;;;;5004239;28;20037;-32
2023/09/03 05:55:39;;;;;;;3.08;2.80;;;14.20;99.90;;;;;;5002153;28;20376;-32
2023/09/03 05:58:06;;;;;;;4.25;2.40;;;14.30;99.90;;;;;;5002054;28;20067;-33
2023/09/03 06:00:32;;;;;;;2.95;2.60;;;14.40;99.90;;;;;;5005780;28;20041;-36
2023/09/03 06:02:57;;;;;;;3.95;2.70;;;14.40;99.90;;;;;;5003790;28;20048;-32
2023/09/03 06:05:27;;;;;;;2.70;2.42;;;14.50;99.90;;;;;;5005556;28;20614;-34
2023/09/03 06:07:53;;;;;;;3.55;2.80;;;14.60;99.90;;;;;;5003441;28;20051;-35
2023/09/03 06:10:21;;;;;;;5.75;3.22;;;14.60;99.90;;;;;;5001577;28;20117;-32
2023/09/03 06:12:48;;;;;;;3.35;2.90;;;14.60;99.90;;;;;;5001949;28;20405;-33
2023/09/03 06:15:13;;;;;;;4.50;2.95;;;14.70;99.90;;;;;;5001245;28;20038;-32
2023/09/03 06:17:39;;;;;;;2.95;2.75;;;14.80;99.90;;;;;;5003945;28;20049;-32
2023/09/03 06:20:05;;;;;;;3.50;3.20;;;14.80;99.90;;;;;;5002177;28;20108;-32
2023/09/03 06:22:31;;;;;;;7.03;3.70;;;14.90;99.90;;;;;;5003422;28;20107;-33
2023/09/03 06:24:56;;;;;;;5.07;4.03;;;15.00;99.90;;;;;;5001042;28;20021;-34
2023/09/03 06:27:22;;;;;;;5.28;3.22;;;15.10;99.90;;;;;;5003480;28;20097;-30
2023/09/03 06:29:47;;;;;;;3.60;3.20;;;15.20;99.90;;;;;;5002659;28;20022;-33
2023/09/03 06:32:13;;;;;;;4.00;3.70;;;15.40;99.90;;;;;;4999745;28;20640;-33
2023/09/03 06:34:39;;;;;;;4.60;3.47;;;15.50;99.90;;;;;;5006127;28;20038;-33
2023/09/03 06:37:04;;;;;;;4.05;3.58;;;15.50;99.90;;;;;;5006237;28;20435;-31
2023/09/03 06:39:30;;;;;;;4.72;3.70;;;15.60;99.90;;;;;;5008776;28;20037;-33
2023/09/03 06:41:56;;;;;;;3.90;3.53;;;15.70;99.90;;;;;;5005087;28;20121;-33
2023/09/03 06:44:23;;;;;;;4.40;3.45;;;15.80;99.90;;;;;;5006454;28;20113;-31
2023/09/03 06:46:48;;;;;;;4.18;3.50;;;15.80;99.90;;;;;;5006260;28;20022;-33
2023/09/03 06:49:14;;;;;;;4.65;4.07;;;15.90;99.90;;;;;;5004441;28;20081;-32
2023/09/03 06:51:39;;;;;;;5.82;3.75;;;16.00;99.90;;;;;;5005343;28;20026;-37
2023/09/03 06:54:05;;;;;;;4.30;3.67;;;16.10;99.90;;;;;;5005048;28;20026;-33
2023/09/03 06:56:31;;;;;;;5.32;3.80;;;16.30;99.90;;;;;;5002015;28;20034;-38
2023/09/03 06:58:56;;;;;;;4.10;3.70;;;16.30;99.90;;;;;;5004577;28;20026;-39
2023/09/03 07:01:22;;;;;;;4.07;3.63;;;16.40;99.90;;;;;;4998841;28;20033;-36
2023/09/03 07:03:47;;;;;;;4.03;3.60;;;16.50;99.90;;;;;;5001386;28;20463;-37
2023/09/03 07:06:13;;;;;;;4.30;3.65;;;16.70;99.90;;;;;;5003433;28;20034;-35
2023/09/03 07:08:38;;;;;;;4.35;3.90;;;16.70;99.90;;;;;;5000867;28;20875;-39
2023/09/03 07:11:04;;;;;;;7.70;4.38;;;16.80;99.90;;;;;;5002224;28;20061;-38
2023/09/03 07:13:30;;;;;;;4.80;3.40;;;16.90;99.90;;;;;;5004408;28;20030;-37
2023/09/03 07:15:55;;;;;;;4.80;3.58;;;17.10;99.90;;;;;;5005574;28;20048;-37
2023/09/03 07:18:21;;;;;;;4.18;3.78;;;17.10;99.90;;;;;;5006876;28;20033;-34
2023/09/03 07:20:46;;;;;;;5.55;3.63;;;17.20;99.90;;;;;;5006546;28;20041;-38
2023/09/03 07:23:12;;;;;;;4.18;3.78;;;17.30;99.90;;;;;;5004176;28;20046;-39
2023/09/03 07:25:38;;;;;;;4.43;3.97;;;17.30;99.90;;;;;;5003350;28;20112;-39
2023/09/03 07:28:03;;;;;;;4.05;3.70;;;17.40;99.90;;;;;;5008307;28;20026;-36
2023/09/03 07:30:30;;;;;;;4.57;3.63;;;17.50;99.90;;;;;;5007196;28;20028;-36
2023/09/03 07:32:56;;;;;;;4.90;3.78;;;17.70;99.90;;;;;;5002603;28;20026;-37
2023/09/03 07:35:21;;;;;;;4.97;3.28;;;17.90;99.90;;;;;;5003811;28;20128;-38
2023/09/03 07:37:47;;;;;;;5.00;3.40;;;18.00;99.90;;;;;;5003640;28;20109;-39
2023/09/03 07:40:13;;;;;;;3.80;3.20;;;18.10;99.90;;;;;;5003422;28;20048;-38
2023/09/03 07:42:38;;;;;;;4.82;3.33;;;18.20;99.90;;;;;;5010207;28;20400;-36
2023/09/03 07:45:04;;;;;;;3.10;2.80;;;18.30;99.90;;;;;;5001987;28;20037;-35
2023/09/03 07:47:30;;;;;;;4.85;2.95;;;18.40;99.90;;;;;;5005341;28;20022;-39
2023/09/03 07:49:56;;;;;;;3.38;3.08;;;18.60;99.90;;;;;;5004111;28;20388;-39
2023/09/03 07:52:21;;;;;;;5.00;3.50;;;18.80;99.90;;;;;;5004876;28;20447;-39
2023/09/03 07:54:47;;;;;;;4.18;3.03;;;18.70;99.90;;;;;;5003923;28;20038;-35
2023/09/03 07:57:13;;;;;;;3.20;2.50;;;18.80;99.90;;;;;;5006213;28;20065;-40
2023/09/03 07:59:39;;;;;;;3.55;3.25;;;18.90;99.90;;;;;;5002471;28;20102;-36
2023/09/03 08:02:05;;;;;;;3.55;3.03;;;19.10;99.90;;;;;;5004245;28;20037;-31
2023/09/03 08:04:30;;;;;;;3.38;2.83;;;19.10;99.90;;;;;;5001997;28;20408;-33
2023/09/03 08:06:56;;;;;;;3.38;2.70;;;19.30;99.90;;;;;;5005589;28;20029;-33
2023/09/03 08:09:23;;;;;;;3.13;2.30;;;19.50;99.90;;;;;;5008197;28;20097;-32
2023/09/03 08:11:50;;;;;;;3.43;2.60;;;19.60;99.90;;;;;;5003688;28;20026;-30
2023/09/03 08:14:16;;;;;;;3.03;2.65;;;19.50;99.90;;;;;;5018611;28;20117;-30
2023/09/03 08:16:42;;;;;;;4.70;2.35;;;19.50;99.90;;;;;;5007008;28;20136;-30
2023/09/03 08:19:08;;;;;;;2.88;2.38;;;19.80;99.90;;;;;;5008051;28;20036;-33
2023/09/03 08:21:33;;;;;;;4.35;2.63;;;20.00;99.90;;;;;;5005212;28;20536;-33
2023/09/03 08:23:59;;;;;;;3.00;2.75;;;20.00;99.90;;;;;;5005193;28;20036;-33
2023/09/03 08:26:25;;;;;;;2.70;2.38;;;20.10;99.90;;;;;;5006077;28;20387;-33
2023/09/03 08:28:51;;;;;;;3.03;2.17;;;20.20;99.90;;;;;;5004489;28;20026;-31
2023/09/03 08:31:17;;;;;;;2.22;2.03;;;20.40;99.90;;;;;;5002882;28;20034;-31
2023/09/03 08:33:42;;;;;;;3.03;1.80;;;20.60;99.90;;;;;;5007541;28;20025;-31
2023/09/03 08:36:08;;;;;;;2.80;2.00;;;20.90;99.90;;;;;;5007845;28;20088;-31
2023/09/03 08:38:33;;;;;;;4.13;2.10;;;21.00;99.90;;;;;;5007303;28;20033;-31
2023/09/03 08:40:59;;;;;;;2.25;2.05;;;21.00;99.90;;;;;;5004587;28;20499;-33
2023/09/03 08:43:27;;;;;;;2.35;2.13;;;20.90;99.90;;;;;;5000182;28;20029;-30
2023/09/03 08:46:01;;;;;;;1.92;1.83;;;21.10;99.90;;;;;;5001761;28;20029;-32
2023/09/03 08:48:27;;;;;;;2.33;2.00;;;21.40;99.90;;;;;;5003068;28;20053;-33
2023/09/03 08:50:52;;;;;;;2.03;1.92;;;21.50;99.90;;;;;;5005407;28;20519;-36
2023/09/03 08:53:21;;;;;;;1.90;1.70;;;21.70;99.90;;;;;;5002979;28;20128;-40
2023/09/03 08:55:47;;;;;;;2.50;2.30;;;21.80;99.90;;;;;;5004329;28;20036;-34
2023/09/03 08:58:15;;;;;;;1.88;1.70;;;21.80;99.90;;;;;;5003693;28;20030;-40
2023/09/03 09:00:41;;;;;;;2.40;1.83;;;21.90;99.90;;;;;;5003980;28;20036;-40
2023/09/03 09:03:11;;;;;;;1.60;1.50;;;22.00;99.90;;;;;;5003812;28;21607;-39
2023/09/03 09:05:39;;;;;;;2.53;1.60;;;22.00;99.90;;;;;;5005909;28;20088;-37
2023/09/03 09:08:05;;;;;;;;;;;21.90;99.90;;;;;;5001701;28;20057;-38
2023/09/03 09:10:33;;;;;;;1.52;1.42;;;21.70;99.90;;;;;;5000402;28;20402;-37
2023/09/03 09:13:06;;;;;;;;;;;21.80;99.90;;;;;;5004357;28;20121;-39
2023/09/03 09:15:35;;;;;;;2.13;1.45;;;21.80;99.90;;;;;;5002743;28;19960;-36
2023/09/03 09:18:01;;;;;;;1.75;1.60;;;21.70;99.90;;;;;;5002575;28;20030;-37
2023/09/03 09:20:28;;;;;;;1.75;1.58;;;21.60;99.90;;;;;;5004545;28;20492;-38
2023/09/03 09:22:54;;;;;;;1.55;1.45;;;21.70;99.90;;;;;;5005656;28;20080;-39
2023/09/03 09:25:25;;;;;;;2.15;1.40;;;21.70;99.90;;;;;;5004192;28;20026;-40
2023/09/03 09:27:54;;;;;;;1.67;1.58;;;21.70;99.90;;;;;;5002180;28;20073;-37
2023/09/03 09:30:26;;;;;;;;;;;21.80;99.90;;;;;;5004799;28;20045;-39
2023/09/03 09:33:06;;;;;;;1.65;1.33;;;21.70;99.90;;;;;;5000646;28;20279;-38
2023/09/03 09:35:33;;;;;;;1.25;1.15;;;21.80;99.90;;;;;;5004309;28;20411;-40
2023/09/03 09:38:09;;;;;;;1.60;1.30;;;21.80;99.90;;;;;;5002133;28;20026;-37
2023/09/03 09:40:36;;;;;;;1.77;1.60;;;21.70;99.90;;;;;;5001093;28;20048;-36
2023/09/03 09:43:04;;;;;;;2.38;1.60;;;21.80;99.90;;;;;;5003438;28;20026;-33
2023/09/03 09:45:44;;;;;;;1.73;1.50;;;21.80;99.90;;;;;;5003569;28;20026;-38
2023/09/03 09:48:11;;;;;;;2.03;1.30;;;21.70;99.90;;;;;;5002207;28;20060;-39
2023/09/03 09:50:39;;;;;;;1.40;1.30;;;21.70;99.90;;;;;;5000408;28;20022;-40
2023/09/03 09:53:18;;;;;;;1.75;1.40;;;21.80;99.90;;;;;;5000604;28;20921;-36
2023/09/03 09:55:44;;;;;;;1.90;1.52;;;21.80;99.90;;;;;;5000806;28;20531;-39
2023/09/03 09:58:12;;;;;;;1.40;1.30;;;22.00;99.90;;;;;;5002167;28;20078;-37
2023/09/03 10:00:41;;;;;;;1.45;1.35;;;22.00;99.90;;;;;;5002751;28;20026;-40
2023/09/03 10:03:10;;;;;;;1.70;1.60;;;22.20;99.90;;;;;;5000829;28;20575;-37
2023/09/03 10:05:37;;;;;;;1.60;1.50;;;22.20;99.90;;;;;;5002774;28;20030;-38
2023/09/03 10:08:03;;;;;;;1.30;1.20;;;22.20;99.90;;;;;;5003527;28;20521;-38
2023/09/03 10:10:29;;;;;;;2.88;1.65;;;22.40;99.90;;;;;;5009081;28;20021;-31
2023/09/03 10:12:55;;;;;;;2.60;1.83;;;22.50;99.90;;;;;;5008311;28;20030;-29
2023/09/03 10:15:22;;;;;;;2.42;1.67;;;22.50;99.90;;;;;;5008073;28;20030;-30
2023/09/03 10:17:51;;;;;;;3.72;1.88;;;22.40;99.90;;;;;;5008735;28;20029;-33
2023/09/03 10:20:20;;;;;;;3.38;1.55;;;22.40;99.90;;;;;;5021404;28;20044;-31
2023/09/03 10:22:50;;;;;;;1.70;1.60;;;22.50;99.90;;;;;;5009471;28;20455;-31
2023/09/03 10:25:20;;;;;;;2.15;1.55;;;22.60;99.90;;;;;;5006216;28;20045;-30
2023/09/03 10:27:52;;;;;;;2.63;1.52;;;22.70;99.90;;;;;;5024912;28;20414;-31
2023/09/03 10:30:27;;;;;;;1.83;1.52;;;22.90;99.90;;;;;;5006091;28;20045;-31
2023/09/03 10:32:53;;;;;;;2.10;1.90;;;22.90;99.90;;;;;;5004976;28;20026;-34
2023/09/03 10:35:19;;;;;;;1.83;1.60;;;23.40;99.90;;;;;;5007669;28;20034;-32
2023/09/03 10:37:45;;;;;;;1.95;1.45;;;23.20;99.90;;;;;;5009025;28;20037;-32
2023/09/03 10:40:24;;;;;;;1.73;1.48;;;23.10;99.90;;;;;;5004951;28;20030;-34
2023/09/03 10:43:14;;;;;;;2.35;1.60;;;23.00;99.90;;;;;;5005296;28;20037;-34
2023/09/03 10:46:00;;;;;;;2.15;1.58;;;23.20;99.90;;;;;;5003588;28;20534;-35
2023/09/03 10:48:25;;;;;;;1.55;1.45;;;23.30;99.90;;;;;;5005699;28;20037;-35
2023/09/03 10:50:52;;;;;;;1.50;1.40;;;23.30;99.90;;;;;;5007012;28;20080;-36
2023/09/03 10:53:38;;;;;;;1.50;1.33;;;23.40;99.90;;;;;;4999556;28;20030;-33
2023/09/03 10:56:09;;;;;;;1.48;1.38;;;23.30;99.90;;;;;;5005773;28;20033;-34
2023/09/03 10:58:50;;;;;;;1.60;1.50;;;23.40;99.90;;;;;;5005467;28;20030;-33
2023/09/03 11:01:17;;;;;;;1.50;1.40;;;23.50;99.90;;;;;;5016946;28;20037;-33
2023/09/03 11:03:47;;;;;;;3.13;1.80;;;23.50;99.90;;;;;;5005916;28;20164;-32
2023/09/03 11:06:27;;;;;;;1.52;1.42;;;23.40;99.90;;;;;;5004144;28;20373;-36
2023/09/03 11:08:59;;;;;;;1.63;1.52;;;23.40;99.90;;;;;;5009116;28;20025;-33
2023/09/03 11:11:27;;;;;;;2.15;1.80;;;23.50;99.90;;;;;;5009799;28;20037;-34
2023/09/03 11:13:53;;;;;;;1.70;1.60;;;23.60;99.90;;;;;;5005432;28;20037;-33
2023/09/03 11:16:32;;;;;;;1.50;1.40;;;23.80;99.90;;;;;;5006778;28;20172;-32
2023/09/03 11:18:58;;;;;;;1.52;1.42;;;24.00;99.90;;;;;;5002453;28;20088;-34
2023/09/03 11:21:25;;;;;;;1.60;1.50;;;23.80;99.90;;;;;;5000380;28;20451;-38
2023/09/03 11:24:14;;;;;;;1.80;1.60;;;23.80;99.90;;;;;;5007066;28;20033;-38
2023/09/03 11:26:41;;;;;;;1.23;1.23;;;24.00;99.90;;;;;;5002955;28;20034;-36
2023/09/03 11:29:22;;;;;;;2.38;1.50;;;24.10;99.90;;;;;;5004965;28;20029;-38
2023/09/03 11:31:49;;;;;;;1.40;1.30;;;24.20;99.90;;;;;;5003941;28;20026;-38
2023/09/03 11:34:19;;;;;;;1.40;1.30;;;24.20;99.90;;;;;;5007687;28;20021;-35
2023/09/03 11:36:45;;;;;;;1.10;1.00;;;24.30;99.90;;;;;;5004251;28;20040;-35
2023/09/03 11:39:15;;;;;;;1.40;1.30;;;24.60;99.90;;;;;;5002071;28;20630;-39
2023/09/03 11:41:45;;;;;;;1.45;1.35;;;24.80;99.90;;;;;;5008064;28;20026;-34
2023/09/03 11:44:29;;;;;;;1.48;1.38;;;24.80;99.90;;;;;;5004694;28;20034;-34
2023/09/03 11:47:01;;;;;;;1.17;1.13;;;24.50;99.90;;;;;;5006168;28;20422;-33
2023/09/03 11:49:27;;;;;;;1.52;1.35;;;24.30;99.90;;;;;;5007980;28;20519;-30
2023/09/03 11:52:13;;;;;;;1.45;1.20;;;24.20;99.90;;;;;;5006086;28;20044;-35
2023/09/03 11:54:40;;;;;;;1.50;1.27;;;24.20;99.90;;;;;;5003864;28;20108;-34
2023/09/03 11:57:11;;;;;;;1.40;1.30;;;24.20;99.90;;;;;;5001876;28;20026;-33
2023/09/03 11:59:37;;;;;;;1.38;1.27;;;24.00;99.90;;;;;;5003825;28;20032;-33
2023/09/03 12:02:03;;;;;;;1.30;1.20;;;24.10;99.90;;;;;;5004192;28;20607;-32
2023/09/03 12:04:32;;;;;;;1.60;1.20;;;24.10;99.90;;;;;;5007199;28;20030;-33
2023/09/03 12:06:58;;;;;;;1.10;1.10;;;24.40;99.90;;;;;;5006996;28;20117;-37
2023/09/03 12:09:26;;;;;;;2.35;1.20;;;24.90;99.90;;;;;;5006551;28;20439;-34
2023/09/03 12:11:52;;;;;;;1.20;1.10;;;24.80;99.90;;;;;;5002557;28;20018;-32
2023/09/03 12:14:28;;;;;;;0.80;0.80;;;24.50;99.90;;;;;;5008405;28;20029;-33
2023/09/03 12:16:53;;;;;;;0.93;0.93;;;24.30;99.90;;;;;;5007463;28;20030;-34
2023/09/03 12:19:19;;;;;;;1.17;1.08;;;24.10;99.90;;;;;;5005291;28;20022;-35
2023/09/03 12:21:50;;;;;;;1.38;0.90;;;24.10;99.90;;;;;;5008948;28;20513;-35
2023/09/03 12:24:16;;;;;;;0.77;0.77;;;24.20;99.90;;;;;;5001314;28;20033;-34
2023/09/03 12:26:42;;;;;;;0.80;0.80;;;24.60;99.90;;;;;;5003494;28;20488;-34
2023/09/03 12:29:22;;;;;;;1.17;1.10;;;24.90;99.90;;;;;;5005373;28;20157;-32
2023/09/03 12:31:48;;;;;;;1.17;1.02;;;25.20;99.90;;;;;;5002821;28;20606;-40
2023/09/03 12:34:15;;;;;;;1.25;1.13;;;25.40;99.90;;;;;;5004502;28;20076;-39
2023/09/03 12:36:56;;;;;;;1.45;1.10;;;25.40;99.90;;;;;;5008642;28;20732;-40
2023/09/03 12:39:35;;;;;;;0.90;0.90;;;25.50;99.90;;;;;;5004305;28;20518;-38
2023/09/03 12:42:06;;;;;;;1.27;1.17;;;25.20;99.90;;;;;;5001137;28;20485;-35
2023/09/03 12:44:32;;;;;;;1.30;1.20;;;24.80;99.90;;;;;;5003001;28;20561;-35
2023/09/03 12:46:58;;;;;;;1.20;1.05;;;24.80;99.90;;;;;;5006320;28;20029;-37
2023/09/03 12:49:27;;;;;;;1.98;1.30;;;25.10;99.90;;;;;;5000497;28;20032;-39
2023/09/03 12:51:54;;;;;;;1.23;1.10;;;25.10;99.90;;;;;;5006312;28;20103;-40